createdAt,value
2023-02-15T00:00:00.098Z,31
2023-02-15T00:01:07.010Z,30
2023-02-15T00:02:14.086Z,29
2023-02-15T00:03:21.712Z,31
2023-02-15T00:04:29.386Z,41
2023-02-15T00:05:42.433Z,41
2023-02-15T00:06:50.345Z,33
2023-02-15T00:07:59.308Z,33
2023-02-15T00:09:06.232Z,28
2023-02-15T00:10:13.039Z,33
2023-02-15T00:11:20.684Z,29
2023-02-15T00:12:32.745Z,34
2023-02-15T00:13:40.663Z,28
2023-02-15T00:14:47.557Z,29
2023-02-15T00:15:54.377Z,28
2023-02-15T00:17:09.298Z,33
2023-02-15T00:18:18.179Z,30
2023-02-15T00:19:24.966Z,30
2023-02-15T00:20:33.608Z,31
2023-02-15T00:21:40.521Z,33
2023-02-15T00:22:47.366Z,29
2023-02-15T00:23:56.360Z,30
2023-02-15T00:25:03.200Z,33
2023-02-15T00:26:10.025Z,34
2023-02-15T00:27:17.798Z,38
2023-02-15T00:28:25.827Z,30
2023-02-15T00:29:34.981Z,38
2023-02-15T00:30:41.849Z,31
2023-02-15T00:31:51.644Z,29
2023-02-15T00:32:59.406Z,27
2023-02-15T00:34:07.315Z,37
2023-02-15T00:35:19.347Z,30
2023-02-15T00:36:29.952Z,28
2023-02-15T00:37:36.849Z,27
2023-02-15T00:38:48.363Z,35
2023-02-15T00:39:55.210Z,30
2023-02-15T00:41:02.101Z,32
2023-02-15T00:42:09.028Z,29
2023-02-15T00:43:15.879Z,29
2023-02-15T00:44:22.838Z,30
2023-02-15T00:45:29.583Z,26
2023-02-15T00:46:37.411Z,26
2023-02-15T00:47:46.390Z,30
2023-02-15T00:48:53.422Z,32
2023-02-15T00:50:01.098Z,35
2023-02-15T00:51:08.315Z,31
2023-02-15T00:52:15.102Z,32
2023-02-15T00:53:21.957Z,33
2023-02-15T00:54:28.794Z,31
2023-02-15T00:55:35.623Z,29
2023-02-15T00:56:42.517Z,31
2023-02-15T00:57:50.327Z,38
2023-02-15T00:58:57.169Z,42
2023-02-15T01:00:08.109Z,27
2023-02-15T01:01:15.224Z,36
2023-02-15T01:02:22.057Z,35
2023-02-15T01:03:29.069Z,35
2023-02-15T01:04:41.633Z,32
2023-02-15T01:05:48.432Z,32
2023-02-15T01:06:58.071Z,33
2023-02-15T01:08:05.124Z,36
2023-02-15T01:09:12.835Z,28
2023-02-15T01:10:19.759Z,34
2023-02-15T01:11:26.628Z,31
2023-02-15T01:12:34.282Z,36
2023-02-15T01:13:41.161Z,27
2023-02-15T01:14:48.223Z,33
2023-02-15T01:15:55.312Z,35
2023-02-15T01:17:02.060Z,28
2023-02-15T01:18:08.967Z,35
2023-02-15T01:19:16.390Z,34
2023-02-15T01:20:23.261Z,31
2023-02-15T01:21:31.647Z,30
2023-02-15T01:22:38.555Z,25
2023-02-15T01:23:46.643Z,29
2023-02-15T01:24:53.494Z,36
2023-02-15T01:26:00.976Z,32
2023-02-15T01:27:07.948Z,33
2023-02-15T01:28:15.435Z,31
2023-02-15T01:29:23.272Z,31
2023-02-15T01:30:30.093Z,27
2023-02-15T01:31:37.048Z,30
2023-02-15T01:32:45.444Z,34
2023-02-15T01:33:52.318Z,34
2023-02-15T01:34:59.517Z,33
2023-02-15T01:36:07.368Z,33
2023-02-15T01:37:14.243Z,38
2023-02-15T01:38:21.153Z,36
2023-02-15T01:39:30.261Z,30
2023-02-15T01:40:38.489Z,35
2023-02-15T01:41:45.380Z,30
2023-02-15T01:42:53.448Z,33
2023-02-15T01:44:01.987Z,35
2023-02-15T01:45:08.859Z,30
2023-02-15T01:46:16.519Z,35
2023-02-15T01:47:23.346Z,39
2023-02-15T01:48:33.183Z,31
2023-02-15T01:49:39.983Z,34
2023-02-15T01:50:49.787Z,32
2023-02-15T01:52:00.762Z,34
2023-02-15T01:53:07.876Z,31
2023-02-15T01:54:18.617Z,36
2023-02-15T01:55:28.472Z,33
2023-02-15T01:56:35.317Z,37
2023-02-15T01:57:43.154Z,35
2023-02-15T01:58:50.113Z,37
2023-02-15T01:59:57.153Z,37
2023-02-15T02:01:04.008Z,35
2023-02-15T02:02:14.208Z,33
2023-02-15T02:03:23.259Z,30
2023-02-15T02:04:36.639Z,36
2023-02-15T02:05:43.489Z,27
2023-02-15T02:06:53.474Z,31
2023-02-15T02:08:00.355Z,30
2023-02-15T02:09:11.443Z,29
2023-02-15T02:10:18.307Z,33
2023-02-15T02:11:25.206Z,35
2023-02-15T02:12:33.050Z,32
2023-02-15T02:13:40.967Z,35
2023-02-15T02:14:50.583Z,36
2023-02-15T02:15:58.666Z,39
2023-02-15T02:17:05.449Z,33
2023-02-15T02:18:17.519Z,30
2023-02-15T02:19:27.319Z,31
2023-02-15T02:20:36.782Z,30
2023-02-15T02:21:49.734Z,29
2023-02-15T02:23:01.700Z,26
2023-02-15T02:24:18.966Z,26
2023-02-15T02:25:30.928Z,33
2023-02-15T02:26:46.009Z,28
2023-02-15T02:28:01.251Z,34
2023-02-15T02:29:13.242Z,27
2023-02-15T02:30:28.265Z,31
2023-02-15T02:31:40.996Z,33
2023-02-15T02:32:47.905Z,31
2023-02-15T02:33:59.891Z,29
2023-02-15T02:35:12.926Z,35
2023-02-15T02:36:23.765Z,34
2023-02-15T02:37:35.927Z,32
2023-02-15T02:38:51.083Z,26
2023-02-15T02:40:02.214Z,28
2023-02-15T02:41:19.468Z,28
2023-02-15T02:42:32.483Z,29
2023-02-15T02:43:44.484Z,29
2023-02-15T02:44:59.248Z,26
2023-02-15T02:46:17.313Z,33
2023-02-15T02:47:32.493Z,31
2023-02-15T02:48:48.586Z,32
2023-02-15T02:49:55.567Z,33
2023-02-15T02:51:03.451Z,35
2023-02-15T02:52:10.388Z,31
2023-02-15T02:53:27.498Z,32
2023-02-15T02:54:35.887Z,25
2023-02-15T02:55:42.778Z,33
2023-02-15T02:56:49.655Z,31
2023-02-15T02:57:57.506Z,30
2023-02-15T02:59:04.414Z,32
2023-02-15T03:00:16.934Z,26
2023-02-15T03:01:27.081Z,29
2023-02-15T03:02:33.805Z,31
2023-02-15T03:03:40.770Z,34
2023-02-15T03:04:48.442Z,34
2023-02-15T03:05:56.367Z,37
2023-02-15T03:07:04.094Z,32
2023-02-15T03:08:11.139Z,31
2023-02-15T03:09:18.041Z,31
2023-02-15T03:10:28.672Z,29
2023-02-15T03:11:37.458Z,31
2023-02-15T03:12:46.692Z,36
2023-02-15T03:13:53.626Z,34
2023-02-15T03:15:00.363Z,30
2023-02-15T03:16:07.185Z,35
2023-02-15T03:17:19.073Z,37
2023-02-15T03:18:25.899Z,35
2023-02-15T03:19:33.985Z,37
2023-02-15T03:20:40.820Z,34
2023-02-15T03:21:50.639Z,36
2023-02-15T03:23:02.532Z,33
2023-02-15T03:24:09.567Z,29
2023-02-15T03:25:21.187Z,25
2023-02-15T03:26:29.327Z,34
2023-02-15T03:27:38.084Z,28
2023-02-15T03:28:47.880Z,28
2023-02-15T03:29:56.718Z,39
2023-02-15T03:31:05.184Z,33
2023-02-15T03:32:13.309Z,32
2023-02-15T03:33:20.116Z,37
2023-02-15T03:34:27.016Z,34
2023-02-15T03:35:33.873Z,36
2023-02-15T03:36:48.623Z,29
2023-02-15T03:37:58.728Z,34
2023-02-15T03:39:08.997Z,38
2023-02-15T03:40:21.419Z,36
2023-02-15T03:41:43.168Z,35
2023-02-15T03:42:53.048Z,31
2023-02-15T03:44:05.109Z,43
2023-02-15T03:45:18.678Z,35
2023-02-15T03:46:28.353Z,37
2023-02-15T03:47:39.681Z,32
2023-02-15T03:48:48.071Z,39
2023-02-15T03:50:01.291Z,37
2023-02-15T03:51:13.320Z,36
2023-02-15T03:52:25.356Z,32
2023-02-15T03:53:33.460Z,40
2023-02-15T03:54:40.280Z,42
2023-02-15T03:55:47.043Z,39
2023-02-15T03:56:53.926Z,40
2023-02-15T03:58:00.867Z,39
2023-02-15T03:59:13.755Z,38
2023-02-15T04:00:25.992Z,37
2023-02-15T04:01:37.927Z,40
2023-02-15T04:02:52.283Z,43
2023-02-15T04:04:10.849Z,44
2023-02-15T04:05:21.264Z,47
2023-02-15T04:06:29.025Z,40
2023-02-15T04:07:35.935Z,37
2023-02-15T04:08:44.396Z,39
2023-02-15T04:09:56.312Z,39
2023-02-15T04:11:09.411Z,45
2023-02-15T04:12:16.223Z,46
2023-02-15T04:13:23.184Z,39
2023-02-15T04:14:35.116Z,33
2023-02-15T04:15:48.176Z,38
2023-02-15T04:17:00.056Z,43
2023-02-15T04:18:08.007Z,35
2023-02-15T04:19:14.828Z,37
2023-02-15T04:20:29.169Z,44
2023-02-15T04:21:45.292Z,43
2023-02-15T04:22:57.259Z,45
2023-02-15T04:24:11.999Z,41
2023-02-15T04:25:23.955Z,40
2023-02-15T04:26:31.934Z,43
2023-02-15T04:27:38.942Z,40
2023-02-15T04:28:45.819Z,36
2023-02-15T04:29:52.732Z,38
2023-02-15T04:31:01.776Z,39
2023-02-15T04:32:10.640Z,43
2023-02-15T04:33:19.241Z,39
2023-02-15T04:34:26.936Z,38
2023-02-15T04:35:34.301Z,45
2023-02-15T04:36:43.341Z,37
2023-02-15T04:37:50.325Z,42
2023-02-15T04:39:00.336Z,48
2023-02-15T04:40:08.312Z,45
2023-02-15T04:41:16.046Z,40
2023-02-15T04:42:22.868Z,49
2023-02-15T04:43:31.817Z,42
2023-02-15T04:44:38.719Z,45
2023-02-15T04:45:50.239Z,56
2023-02-15T04:46:59.996Z,50
2023-02-15T04:48:08.988Z,52
2023-02-15T04:49:17.427Z,60
2023-02-15T04:50:24.443Z,52
2023-02-15T04:51:31.293Z,51
2023-02-15T04:52:38.945Z,45
2023-02-15T04:53:48.371Z,52
2023-02-15T04:54:55.284Z,43
2023-02-15T04:56:03.138Z,51
2023-02-15T04:57:09.709Z,52
2023-02-15T04:58:16.701Z,45
2023-02-15T04:59:23.580Z,53
2023-02-15T05:00:30.472Z,44
2023-02-15T05:01:38.868Z,45
2023-02-15T05:02:46.945Z,47
2023-02-15T05:03:53.829Z,47
2023-02-15T05:05:02.537Z,53
2023-02-15T05:06:09.829Z,57
2023-02-15T05:07:18.938Z,56
2023-02-15T05:08:25.939Z,53
2023-02-15T05:09:34.591Z,58
2023-02-15T05:10:41.480Z,54
2023-02-15T05:11:48.416Z,50
2023-02-15T05:12:55.297Z,50
2023-02-15T05:14:02.855Z,55
2023-02-15T05:15:09.944Z,54
2023-02-15T05:16:19.523Z,59
2023-02-15T05:17:26.329Z,57
2023-02-15T05:18:36.229Z,58
2023-02-15T05:19:43.022Z,59
2023-02-15T05:20:50.707Z,58
2023-02-15T05:21:58.356Z,51
2023-02-15T05:23:07.551Z,55
2023-02-15T05:24:15.156Z,60
2023-02-15T05:25:28.257Z,65
2023-02-15T05:26:41.341Z,71
2023-02-15T05:27:53.319Z,62
2023-02-15T05:29:05.583Z,66
2023-02-15T05:30:12.809Z,62
2023-02-15T05:31:19.825Z,69
2023-02-15T05:32:28.642Z,69
2023-02-15T05:33:36.384Z,70
2023-02-15T05:34:44.173Z,68
2023-02-15T05:35:51.102Z,63
2023-02-15T05:36:59.153Z,64
2023-02-15T05:38:05.990Z,63
2023-02-15T05:39:13.123Z,66
2023-02-15T05:40:20.094Z,64
2023-02-15T05:41:27.717Z,57
2023-02-15T05:42:35.409Z,60
2023-02-15T05:43:42.306Z,58
2023-02-15T05:44:50.027Z,58
2023-02-15T05:45:58.299Z,57
2023-02-15T05:47:08.018Z,57
2023-02-15T05:48:18.667Z,59
2023-02-15T05:49:25.535Z,60
2023-02-15T05:50:33.266Z,69
2023-02-15T05:51:40.067Z,66
2023-02-15T05:52:46.884Z,67
2023-02-15T05:53:56.337Z,65
2023-02-15T05:55:05.632Z,69
2023-02-15T05:56:13.814Z,63
2023-02-15T05:57:23.599Z,56
2023-02-15T05:58:30.435Z,62
2023-02-15T05:59:38.212Z,60
2023-02-15T06:00:45.054Z,61
2023-02-15T06:01:51.970Z,64
2023-02-15T06:03:04.669Z,59
2023-02-15T06:04:16.183Z,55
2023-02-15T06:05:23.032Z,58
2023-02-15T06:06:31.427Z,53
2023-02-15T06:07:38.247Z,62
2023-02-15T06:08:47.452Z,61
2023-02-15T06:09:54.328Z,61
2023-02-15T06:11:02.089Z,62
2023-02-15T06:12:09.124Z,64
2023-02-15T06:13:15.914Z,62
2023-02-15T06:14:23.784Z,60
2023-02-15T06:15:30.770Z,67
2023-02-15T06:16:39.481Z,67
2023-02-15T06:17:46.537Z,64
2023-02-15T06:18:54.740Z,60
2023-02-15T06:20:01.516Z,67
2023-02-15T06:21:08.657Z,62
2023-02-15T06:22:15.532Z,55
2023-02-15T06:23:22.622Z,57
2023-02-15T06:24:29.604Z,52
2023-02-15T06:25:38.056Z,57
2023-02-15T06:26:43.282Z,59
2023-02-15T06:27:51.008Z,69
2023-02-15T06:28:58.015Z,65
2023-02-15T06:30:08.274Z,65
2023-02-15T06:31:16.835Z,62
2023-02-15T06:32:25.079Z,58
2023-02-15T06:33:32.005Z,73
2023-02-15T06:34:40.172Z,70
2023-02-15T06:35:47.039Z,63
2023-02-15T06:36:53.886Z,75
2023-02-15T06:38:00.738Z,73
2023-02-15T06:39:07.841Z,74
2023-02-15T06:40:17.716Z,72
2023-02-15T06:41:24.639Z,70
2023-02-15T06:42:31.603Z,73
2023-02-15T06:43:40.907Z,71
2023-02-15T06:44:47.263Z,69
2023-02-15T06:45:54.250Z,76
2023-02-15T06:47:01.207Z,68
2023-02-15T06:48:11.455Z,75
2023-02-15T06:49:19.296Z,70
2023-02-15T06:50:26.279Z,75
2023-02-15T06:51:36.227Z,73
2023-02-15T06:52:43.627Z,76
2023-02-15T06:53:50.696Z,74
2023-02-15T06:55:00.502Z,74
2023-02-15T06:56:08.092Z,82
2023-02-15T06:57:15.228Z,79
2023-02-15T06:58:25.388Z,85
2023-02-15T06:59:32.459Z,83
2023-02-15T07:00:39.844Z,90
2023-02-15T07:01:49.378Z,81
2023-02-15T07:02:56.973Z,79
2023-02-15T07:04:05.105Z,82
2023-02-15T07:05:12.411Z,87
2023-02-15T07:06:24.605Z,85
2023-02-15T07:07:34.079Z,92
2023-02-15T07:08:45.225Z,95
2023-02-15T07:09:53.231Z,86
2023-02-15T07:11:00.206Z,91
2023-02-15T07:12:13.257Z,90
2023-02-15T07:13:28.621Z,89
2023-02-15T07:14:35.518Z,86
2023-02-15T07:15:42.967Z,91
2023-02-15T07:16:49.933Z,87
2023-02-15T07:17:56.926Z,92
2023-02-15T07:19:05.060Z,90
2023-02-15T07:20:12.835Z,89
2023-02-15T07:21:19.820Z,89
2023-02-15T07:22:26.871Z,82
2023-02-15T07:23:36.795Z,81
2023-02-15T07:24:43.947Z,92
2023-02-15T07:25:51.036Z,88
2023-02-15T07:27:06.003Z,87
2023-02-15T07:28:13.959Z,79
2023-02-15T07:29:21.996Z,81
2023-02-15T07:30:29.180Z,89
2023-02-15T07:31:38.859Z,87
2023-02-15T07:32:46.959Z,83
2023-02-15T07:34:03.105Z,80
2023-02-15T07:35:10.057Z,81
2023-02-15T07:36:17.341Z,83
2023-02-15T07:37:33.754Z,87
2023-02-15T07:38:43.662Z,89
2023-02-15T07:39:53.600Z,94
2023-02-15T07:41:01.150Z,86
2023-02-15T07:42:08.057Z,94
2023-02-15T07:43:15.140Z,93
2023-02-15T07:44:34.700Z,94
2023-02-15T07:45:43.257Z,81
2023-02-15T07:46:50.223Z,87
2023-02-15T07:47:59.981Z,95
2023-02-15T07:49:09.239Z,84
2023-02-15T07:50:17.391Z,81
2023-02-15T07:51:24.547Z,87
2023-02-15T07:52:31.676Z,87
2023-02-15T07:53:41.351Z,84
2023-02-15T07:54:48.420Z,75
2023-02-15T07:55:55.696Z,69
2023-02-15T07:57:06.688Z,74
2023-02-15T07:58:14.928Z,60
2023-02-15T07:59:22.092Z,61
2023-02-15T08:00:31.951Z,59
2023-02-15T08:01:41.514Z,56
2023-02-15T08:02:51.125Z,47
2023-02-15T08:03:59.248Z,51
2023-02-15T08:05:09.006Z,60
2023-02-15T08:06:16.095Z,43
2023-02-15T08:07:23.042Z,37
2023-02-15T08:08:33.028Z,26
2023-02-15T08:09:43.491Z,26
2023-02-15T08:10:50.740Z,25
2023-02-15T08:12:10.885Z,26
2023-02-15T08:13:20.558Z,28
2023-02-15T08:14:28.192Z,25
2023-02-15T08:15:38.751Z,25
2023-02-15T08:16:48.686Z,25
2023-02-15T08:18:06.312Z,28
2023-02-15T08:19:13.827Z,31
2023-02-15T08:20:20.770Z,25
2023-02-15T08:21:27.760Z,28
2023-02-15T08:22:37.945Z,27
2023-02-15T08:23:45.912Z,25
2023-02-15T08:24:53.173Z,32
2023-02-15T08:26:01.436Z,29
2023-02-15T08:27:09.209Z,25
2023-02-15T08:28:17.052Z,32
2023-02-15T08:29:26.859Z,25
2023-02-15T08:30:41.320Z,29
2023-02-15T08:31:48.510Z,29
2023-02-15T08:33:01.367Z,30
2023-02-15T08:34:11.522Z,27
2023-02-15T08:35:18.783Z,31
2023-02-15T08:36:29.929Z,28
2023-02-15T08:37:36.936Z,45
2023-02-15T08:38:43.860Z,38
2023-02-15T08:39:50.872Z,39
2023-02-15T08:40:58.136Z,31
2023-02-15T08:42:16.109Z,31
2023-02-15T08:43:23.252Z,27
2023-02-15T08:44:30.283Z,26
2023-02-15T08:45:37.415Z,32
2023-02-15T08:46:44.343Z,57
2023-02-15T08:47:51.458Z,38
2023-02-15T08:48:59.575Z,34
2023-02-15T08:50:06.698Z,33
2023-02-15T08:51:16.786Z,49
2023-02-15T08:52:23.878Z,58
2023-02-15T08:53:32.053Z,50
2023-02-15T08:54:41.663Z,53
2023-02-15T08:55:51.390Z,42
2023-02-15T08:57:01.813Z,38
2023-02-15T08:58:09.070Z,55
2023-02-15T08:59:17.070Z,47
2023-02-15T09:00:26.488Z,43
2023-02-15T09:01:35.551Z,45
2023-02-15T09:02:42.845Z,49
2023-02-15T09:03:53.688Z,58
2023-02-15T09:05:04.850Z,62
2023-02-15T09:06:16.293Z,59
2023-02-15T09:07:37.290Z,52
2023-02-15T09:08:48.029Z,56
2023-02-15T09:09:54.996Z,59
2023-02-15T09:11:07.405Z,51
2023-02-15T09:12:15.754Z,54
2023-02-15T09:13:27.239Z,51
2023-02-15T09:14:34.418Z,52
2023-02-15T09:15:41.533Z,53
2023-02-15T09:16:50.168Z,57
2023-02-15T09:18:00.032Z,63
2023-02-15T09:19:07.155Z,54
2023-02-15T09:20:14.090Z,48
2023-02-15T09:21:21.824Z,54
2023-02-15T09:22:28.760Z,44
2023-02-15T09:23:35.713Z,53
2023-02-15T09:24:42.860Z,60
2023-02-15T09:25:50.199Z,51
2023-02-15T09:26:58.111Z,50
2023-02-15T09:28:06.824Z,46
2023-02-15T09:29:13.974Z,50
2023-02-15T09:30:21.134Z,38
2023-02-15T09:31:28.310Z,42
2023-02-15T09:32:38.414Z,42
2023-02-15T09:33:46.410Z,42
2023-02-15T09:34:54.461Z,32
2023-02-15T09:36:02.319Z,31
2023-02-15T09:37:10.361Z,37
2023-02-15T09:38:17.212Z,25
2023-02-15T09:39:24.222Z,31
2023-02-15T09:40:31.505Z,27
2023-02-15T09:41:39.015Z,25
2023-02-15T09:42:51.849Z,34
2023-02-15T09:43:59.708Z,29
2023-02-15T09:45:14.341Z,34
2023-02-15T09:46:22.361Z,28
2023-02-15T09:47:34.181Z,32
2023-02-15T09:48:49.186Z,25
2023-02-15T09:49:56.159Z,30
2023-02-15T09:51:13.347Z,31
2023-02-15T09:52:31.376Z,25
2023-02-15T09:53:45.911Z,37
2023-02-15T09:55:01.019Z,43
2023-02-15T09:56:15.692Z,25
2023-02-15T09:57:27.794Z,48
2023-02-15T09:58:38.746Z,47
2023-02-15T09:59:58.726Z,42
2023-02-15T10:01:11.110Z,39
2023-02-15T10:02:30.770Z,29
2023-02-15T10:03:47.674Z,26
2023-02-15T10:05:06.011Z,29
2023-02-15T10:06:18.821Z,29
2023-02-15T10:07:33.394Z,36
2023-02-15T10:08:50.370Z,25
2023-02-15T10:10:03.867Z,26
2023-02-15T10:11:16.016Z,32
2023-02-15T10:12:34.216Z,32
2023-02-15T10:13:48.783Z,32
2023-02-15T10:15:03.320Z,35
2023-02-15T10:16:23.424Z,30
2023-02-15T10:17:35.448Z,33
2023-02-15T10:18:50.855Z,30
2023-02-15T10:20:00.955Z,45
2023-02-15T10:21:12.874Z,40
2023-02-15T10:22:30.731Z,50
2023-02-15T10:23:48.049Z,32
2023-02-15T10:25:05.996Z,28
2023-02-15T10:26:23.414Z,26
2023-02-15T10:27:35.367Z,33
2023-02-15T10:28:42.340Z,28
2023-02-15T10:29:59.751Z,35
2023-02-15T10:31:07.092Z,25
2023-02-15T10:32:14.228Z,30
2023-02-15T10:33:26.910Z,33
2023-02-15T10:34:43.955Z,27
2023-02-15T10:35:59.071Z,25
2023-02-15T10:37:13.880Z,33
2023-02-15T10:38:25.974Z,45
2023-02-15T10:39:41.284Z,41
2023-02-15T10:40:53.358Z,31
2023-02-15T10:42:12.110Z,63
2023-02-15T10:43:27.683Z,49
2023-02-15T10:44:44.861Z,43
2023-02-15T10:45:56.928Z,33
2023-02-15T10:47:10.639Z,35
2023-02-15T10:48:27.073Z,29
2023-02-15T10:49:39.132Z,30
2023-02-15T10:50:47.309Z,33
2023-02-15T10:51:54.479Z,28
2023-02-15T10:53:04.068Z,41
2023-02-15T10:54:19.180Z,32
2023-02-15T10:55:35.046Z,35
2023-02-15T10:56:52.363Z,29
2023-02-15T10:58:04.442Z,36
2023-02-15T10:59:17.552Z,34
2023-02-15T11:00:35.601Z,25
2023-02-15T11:01:51.052Z,31
2023-02-15T11:03:00.662Z,32
2023-02-15T11:04:13.196Z,46
2023-02-15T11:05:34.123Z,41
2023-02-15T11:06:46.575Z,47
2023-02-15T11:08:02.110Z,33
2023-02-15T11:09:10.243Z,33
2023-02-15T11:10:22.359Z,32
2023-02-15T11:11:34.339Z,28
2023-02-15T11:12:44.197Z,42
2023-02-15T11:13:53.170Z,32
2023-02-15T11:15:03.774Z,43
2023-02-15T11:16:17.606Z,37
2023-02-15T11:17:27.754Z,49
2023-02-15T11:18:39.757Z,38
2023-02-15T11:19:55.055Z,43
2023-02-15T11:21:11.433Z,33
2023-02-15T11:22:18.342Z,27
2023-02-15T11:23:25.305Z,39
2023-02-15T11:24:32.247Z,44
2023-02-15T11:25:39.164Z,49
2023-02-15T11:26:46.165Z,49
2023-02-15T11:28:02.086Z,45
2023-02-15T11:29:09.323Z,47
2023-02-15T11:30:26.599Z,36
2023-02-15T11:31:33.651Z,36
2023-02-15T11:32:45.670Z,42
2023-02-15T11:33:54.141Z,37
2023-02-15T11:35:08.302Z,51
2023-02-15T11:36:16.121Z,41
2023-02-15T11:37:25.069Z,35
2023-02-15T11:38:32.774Z,47
2023-02-15T11:39:40.453Z,27
2023-02-15T11:40:51.369Z,28
2023-02-15T11:41:58.480Z,32
2023-02-15T11:43:05.684Z,33
2023-02-15T11:44:15.720Z,33
2023-02-15T11:45:25.251Z,44
2023-02-15T11:46:34.851Z,33
2023-02-15T11:47:42.136Z,47
2023-02-15T11:48:49.952Z,38
2023-02-15T11:49:59.646Z,32
2023-02-15T11:51:07.015Z,41
2023-02-15T11:52:14.593Z,38
2023-02-15T11:53:22.500Z,34
2023-02-15T11:54:29.378Z,29
2023-02-15T11:55:37.975Z,29
2023-02-15T11:56:46.485Z,45
2023-02-15T11:57:53.460Z,27
2023-02-15T11:59:10.673Z,43
2023-02-15T12:00:19.728Z,43
2023-02-15T12:01:32.806Z,40
2023-02-15T12:02:40.350Z,37
2023-02-15T12:03:48.067Z,36
2023-02-15T12:04:57.521Z,32
2023-02-15T12:06:05.207Z,27
2023-02-15T12:07:12.208Z,33
2023-02-15T12:08:22.261Z,31
2023-02-15T12:09:30.019Z,43
2023-02-15T12:10:40.599Z,41
2023-02-15T12:11:50.280Z,25
2023-02-15T12:12:58.592Z,30
2023-02-15T12:14:15.759Z,41
2023-02-15T12:15:25.683Z,31
2023-02-15T12:16:33.274Z,29
2023-02-15T12:17:48.427Z,32
2023-02-15T12:18:58.813Z,39
2023-02-15T12:20:05.871Z,57
2023-02-15T12:21:17.853Z,48
2023-02-15T12:22:33.047Z,39
2023-02-15T12:23:40.989Z,33
2023-02-15T12:24:49.816Z,33
2023-02-15T12:25:57.654Z,30
2023-02-15T12:27:04.717Z,34
2023-02-15T12:28:19.693Z,25
2023-02-15T12:29:32.667Z,34
2023-02-15T12:30:44.668Z,30
2023-02-15T12:31:54.939Z,32
2023-02-15T12:33:04.351Z,27
2023-02-15T12:34:20.108Z,44
2023-02-15T12:35:27.628Z,37
2023-02-15T12:36:37.115Z,33
2023-02-15T12:37:47.636Z,36
2023-02-15T12:40:17.575Z,41
2023-02-15T12:41:24.847Z,47
2023-02-15T12:42:33.036Z,39
2023-02-15T12:43:45.232Z,44
2023-02-15T12:44:52.847Z,30
2023-02-15T12:46:03.281Z,26
2023-02-15T12:47:17.905Z,33
2023-02-15T12:48:25.244Z,38
2023-02-15T12:49:36.260Z,31
2023-02-15T12:50:43.214Z,25
2023-02-15T12:51:50.542Z,38
2023-02-15T12:52:57.791Z,42
2023-02-15T12:54:12.723Z,25
2023-02-15T12:55:29.872Z,32
2023-02-15T12:56:37.639Z,34
2023-02-15T12:57:44.999Z,34
2023-02-15T12:58:53.029Z,37
2023-02-15T13:00:00.022Z,38
2023-02-15T13:01:07.168Z,36
2023-02-15T13:02:14.943Z,44
2023-02-15T13:03:33.732Z,36
2023-02-15T13:04:42.601Z,39
2023-02-15T13:05:49.437Z,51
2023-02-15T13:06:58.604Z,44
2023-02-15T13:08:07.799Z,33
2023-02-15T13:09:22.755Z,43
2023-02-15T13:10:35.775Z,43
2023-02-15T13:11:51.507Z,39
2023-02-15T13:13:01.968Z,40
2023-02-15T13:14:09.280Z,40
2023-02-15T13:15:30.631Z,33
2023-02-15T13:16:37.629Z,37
2023-02-15T13:17:46.860Z,44
2023-02-15T13:18:54.781Z,37
2023-02-15T13:20:01.783Z,39
2023-02-15T13:21:11.309Z,42
2023-02-15T13:22:21.451Z,53
2023-02-15T13:23:36.113Z,46
2023-02-15T13:24:41.753Z,56
2023-02-15T13:25:48.903Z,51
2023-02-15T13:29:36.434Z,51
2023-02-15T13:30:43.672Z,42
2023-02-15T13:31:51.074Z,55
2023-02-15T13:33:01.493Z,55
2023-02-15T13:34:11.535Z,47
2023-02-15T13:35:21.720Z,52
2023-02-15T13:36:28.927Z,51
2023-02-15T13:37:39.226Z,46
2023-02-15T13:38:58.448Z,45
2023-02-15T13:40:10.902Z,47
2023-02-15T13:41:18.217Z,44
2023-02-15T13:42:30.465Z,53
2023-02-15T13:43:37.568Z,47
2023-02-15T13:44:49.920Z,39
2023-02-15T13:45:57.409Z,34
2023-02-15T13:47:12.976Z,43
2023-02-15T13:48:44.987Z,65
2023-02-15T13:49:46.310Z,46
2023-02-15T13:50:58.485Z,52
2023-02-15T13:52:13.605Z,49
2023-02-15T13:53:28.677Z,46
2023-02-15T13:54:40.160Z,51
2023-02-15T13:55:51.245Z,44
2023-02-15T13:56:58.443Z,35
2023-02-15T13:58:12.374Z,47
2023-02-15T13:59:26.155Z,55
2023-02-15T14:00:41.044Z,55
2023-02-15T14:01:53.240Z,41
2023-02-15T14:03:03.485Z,43
2023-02-15T14:04:15.728Z,46
2023-02-15T14:05:31.675Z,52
2023-02-15T14:06:43.954Z,53
2023-02-15T14:08:01.233Z,59
2023-02-15T14:09:16.530Z,52
2023-02-15T14:10:28.815Z,48
2023-02-15T14:11:41.017Z,51
2023-02-15T14:12:53.293Z,40
2023-02-15T14:14:10.462Z,46
2023-02-15T14:15:27.481Z,40
2023-02-15T14:16:42.848Z,48
2023-02-15T14:17:55.653Z,56
2023-02-15T14:19:07.932Z,58
2023-02-15T14:20:18.135Z,52
2023-02-15T14:21:31.301Z,52
2023-02-15T14:22:44.010Z,46
2023-02-15T14:23:57.211Z,47
2023-02-15T14:25:10.295Z,42
2023-02-15T14:26:20.199Z,51
2023-02-15T14:27:38.292Z,48
2023-02-15T14:28:48.493Z,46
2023-02-15T14:30:00.704Z,53
2023-02-15T14:31:08.454Z,59
2023-02-15T14:32:16.636Z,51
2023-02-15T14:33:28.999Z,57
2023-02-15T14:34:38.576Z,56
2023-02-15T14:35:56.677Z,56
2023-02-15T14:37:07.235Z,61
2023-02-15T14:38:15.347Z,67
2023-02-15T14:39:32.578Z,73
2023-02-15T14:40:46.988Z,61
2023-02-15T14:42:07.015Z,71
2023-02-15T14:43:17.488Z,60
2023-02-15T14:44:25.786Z,64
2023-02-15T14:45:40.946Z,67
2023-02-15T14:46:56.144Z,71
2023-02-15T14:48:03.391Z,74
2023-02-15T14:49:27.680Z,76
2023-02-15T14:50:38.654Z,71
2023-02-15T14:51:48.440Z,73
2023-02-15T14:52:56.521Z,74
2023-02-15T14:54:13.849Z,80
2023-02-15T14:55:22.045Z,65
2023-02-15T14:56:42.304Z,74
2023-02-15T14:57:50.041Z,100
2023-02-15T14:59:00.019Z,95
2023-02-15T15:00:17.310Z,96
2023-02-15T15:01:34.780Z,75
2023-02-15T15:02:49.088Z,81
2023-02-15T15:03:58.606Z,75
2023-02-15T15:05:11.450Z,80
2023-02-15T15:06:23.744Z,76
2023-02-15T15:07:31.614Z,69
2023-02-15T15:08:46.655Z,72
2023-02-15T15:09:53.880Z,79
2023-02-15T15:11:05.437Z,78
2023-02-15T15:12:23.104Z,81
2023-02-15T15:13:32.765Z,69
2023-02-15T15:14:39.930Z,86
2023-02-15T15:15:49.986Z,80
2023-02-15T15:16:56.970Z,80
2023-02-15T15:18:04.290Z,83
2023-02-15T15:19:11.635Z,82
2023-02-15T15:20:20.357Z,75
2023-02-15T15:21:31.370Z,70
2023-02-15T15:22:49.369Z,74
2023-02-15T15:23:56.751Z,82
2023-02-15T15:25:04.154Z,73
2023-02-15T15:26:18.925Z,85
2023-02-15T15:27:34.344Z,86
2023-02-15T15:28:42.043Z,76
2023-02-15T15:29:50.263Z,88
2023-02-15T15:30:57.605Z,89
2023-02-15T15:32:10.070Z,86
2023-02-15T15:33:17.669Z,99
2023-02-15T15:34:27.664Z,86
2023-02-15T15:35:40.029Z,83
2023-02-15T15:36:59.977Z,89
2023-02-15T15:38:17.649Z,86
2023-02-15T15:39:37.475Z,94
2023-02-15T15:40:53.453Z,116
2023-02-15T15:42:11.334Z,109
2023-02-15T15:43:24.006Z,110
2023-02-15T15:44:38.912Z,92
2023-02-15T15:45:56.311Z,108
2023-02-15T15:47:11.456Z,99
2023-02-15T15:48:28.708Z,115
2023-02-15T15:49:39.676Z,92
2023-02-15T15:50:49.598Z,110
2023-02-15T15:51:59.436Z,108
2023-02-15T15:53:06.708Z,119
2023-02-15T15:54:17.208Z,119
2023-02-15T15:55:27.619Z,115
2023-02-15T15:56:34.884Z,106
2023-02-15T15:57:44.602Z,120
2023-02-15T15:58:54.836Z,112
2023-02-15T16:00:06.286Z,115
2023-02-15T16:01:24.776Z,117
2023-02-15T16:02:35.937Z,115
2023-02-15T16:03:44.414Z,101
2023-02-15T16:04:57.645Z,117
2023-02-15T16:06:13.092Z,129
2023-02-15T16:07:24.690Z,106
2023-02-15T16:08:36.405Z,115
2023-02-15T16:09:47.581Z,125
2023-02-15T16:11:04.119Z,107
2023-02-15T16:12:22.407Z,119
2023-02-15T16:13:28.444Z,118
2023-02-15T16:14:38.713Z,122
2023-02-15T16:15:48.155Z,120
2023-02-15T16:16:55.552Z,117
2023-02-15T16:18:02.945Z,120
2023-02-15T16:19:11.077Z,125
2023-02-15T16:20:22.290Z,115
2023-02-15T16:21:34.871Z,123
2023-02-15T16:22:45.406Z,120
2023-02-15T16:23:52.646Z,118
2023-02-15T16:25:03.045Z,118
2023-02-15T16:26:20.940Z,130
2023-02-15T16:27:31.168Z,115
2023-02-15T16:28:38.450Z,118
2023-02-15T16:29:45.703Z,121
2023-02-15T16:30:52.982Z,118
2023-02-15T16:32:11.298Z,113
2023-02-15T16:33:27.679Z,127
2023-02-15T16:34:40.010Z,124
2023-02-15T16:35:57.363Z,112
2023-02-15T16:37:06.839Z,117
2023-02-15T16:38:21.611Z,117
2023-02-15T16:39:42.133Z,121